This is the latest recevied weather packets stored in our database for station/object OK1JIL-13. If no packets are shown the sender has not sent any weather packets the latest 10 day(s).
| Time | Temp. | Humidity | Pressure | Rain* | Wind** | Luminosity | Snow |
|---|---|---|---|---|---|---|---|
| 1777712002 | 18.33° C | 24% | 1026.7 hPa | - | - | - | - |
| 1777711404 | 17.78° C | 26% | 1026.5 hPa | - | - | - | - |
| 1777710800 | 18.89° C | 24% | 1026.7 hPa | - | - | - | - |
| 1777710201 | 18.33° C | 25% | 1026.8 hPa | - | - | - | - |
| 1777709601 | 17.78° C | 27% | 1026.8 hPa | - | - | - | - |
| 1777709000 | 18.33° C | 28% | 1026.9 hPa | - | - | - | - |
| 1777708400 | 17.22° C | 30% | 1026.9 hPa | - | - | - | - |
| 1777707800 | 17.78° C | 27% | 1026.9 hPa | - | - | - | - |
| 1777707200 | 16.11° C | 31% | 1026.9 hPa | - | - | - | - |
| 1777706600 | 17.22° C | 28% | 1027 hPa | - | - | - | - |
| 1777706000 | 16.67° C | 28% | 1027 hPa | - | - | - | - |
| 1777705400 | 16.67° C | 29% | 1027.1 hPa | - | - | - | - |
| 1777704800 | 16.11° C | 30% | 1027.1 hPa | - | - | - | - |
| 1777704201 | 16.67° C | 29% | 1027.1 hPa | - | - | - | - |
| 1777703600 | 17.78° C | 27% | 1027 hPa | - | - | - | - |
| 1777703001 | 17.78° C | 28% | 1027 hPa | - | - | - | - |
| 1777702400 | 18.89° C | 27% | 1026.9 hPa | - | - | - | - |
| 1777701800 | 17.78° C | 28% | 1026.9 hPa | - | - | - | - |
| 1777701200 | 18.33° C | 25% | 1026.9 hPa | - | - | - | - |
| 1777700601 | 18.89° C | 26% | 1026.9 hPa | - | - | - | - |
| 1777700000 | 18.33° C | 28% | 1026.8 hPa | - | - | - | - |
| 1777699401 | 18.89° C | 26% | 1026.8 hPa | - | - | - | - |
| 1777698800 | 17.78° C | 29% | 1026.8 hPa | - | - | - | - |
| 1777698201 | 16.11° C | 31% | 1026.8 hPa | - | - | - | - |
| 1777697600 | 15.56° C | 31% | 1026.7 hPa | - | - | - | - |
* Rain since midnight (hover to see other rain measurements)
** Current wind speed in m/s (hover to see current wind gust speed)